createdAt,value
2022-09-23T00:01:27.530Z,6.18
2022-09-23T00:03:56.349Z,7.35
2022-09-23T00:06:25.062Z,5.50
2022-09-23T00:11:20.170Z,5.90
2022-09-23T00:13:49.843Z,10.70
2022-09-23T00:21:11.438Z,5.93
2022-09-23T00:23:40.629Z,7.40
2022-09-23T00:26:10.244Z,8.73
2022-09-23T00:28:38.300Z,6.97
2022-09-23T00:31:07.775Z,8.20
2022-09-23T00:33:35.488Z,7.60
2022-09-23T00:38:30.649Z,6.63
2022-09-23T00:40:58.605Z,9.38
2022-09-23T00:43:39.112Z,9.05
2022-09-23T00:46:08.982Z,6.45
2022-09-23T00:48:39.516Z,7.97
2022-09-23T00:51:10.729Z,7.28
2022-09-23T00:53:40.758Z,4.60
2022-09-23T00:56:10.712Z,9.35
2022-09-23T00:58:41.761Z,6.40
2022-09-23T01:01:09.981Z,8.27
2022-09-23T01:03:37.732Z,8.25
2022-09-23T01:06:06.591Z,5.68
2022-09-23T01:08:34.285Z,8.07
2022-09-23T01:11:15.776Z,7.05
2022-09-23T01:13:53.157Z,5.20
2022-09-23T01:16:28.529Z,8.43
2022-09-23T01:19:02.727Z,6.38
2022-09-23T01:21:43.438Z,5.97
2022-09-23T01:24:47.018Z,8.45
2022-09-23T01:32:59.082Z,8.25
2022-09-23T01:35:35.288Z,9.27
2022-09-23T01:38:21.556Z,8.57
2022-09-23T01:40:54.080Z,6.13
2022-09-23T01:43:26.606Z,6.15
2022-09-23T01:45:59.523Z,7.53
2022-09-23T01:48:34.138Z,6.43
2022-09-23T01:51:07.195Z,7.60
2022-09-23T01:53:41.310Z,6.20
2022-09-23T01:56:16.152Z,9.82
2022-09-23T01:58:49.070Z,8.07
2022-09-23T02:03:53.126Z,8.88
2022-09-23T02:06:23.629Z,7.22
2022-09-23T02:08:56.481Z,10.75
2022-09-23T02:13:57.094Z,9.65
2022-09-23T02:21:30.781Z,6.70
2022-09-23T02:24:05.263Z,6.38
2022-09-23T02:26:37.563Z,5.38
2022-09-23T02:29:11.887Z,12.02
2022-09-23T02:31:43.431Z,11.10
2022-09-23T02:34:22.007Z,8.65
2022-09-23T02:37:02.607Z,7.50
2022-09-23T02:39:37.178Z,8.88
2022-09-23T02:42:09.985Z,8.40
2022-09-23T02:44:37.950Z,13.68
2022-09-23T02:47:05.850Z,10.65
2022-09-23T02:49:36.495Z,7.97
2022-09-23T02:52:07.624Z,8.60
2022-09-23T02:54:36.003Z,7.43
2022-09-23T02:57:06.554Z,8.98
2022-09-23T02:59:37.016Z,11.50
2022-09-23T03:02:20.688Z,7.53
2022-09-23T03:04:59.523Z,5.75
2022-09-23T03:07:37.323Z,7.70
2022-09-23T03:10:11.590Z,8.95
2022-09-23T03:15:16.428Z,6.18
2022-09-23T03:17:52.878Z,6.75
2022-09-23T03:22:52.385Z,5.03
2022-09-23T03:27:48.496Z,5.70
2022-09-23T03:30:16.328Z,5.90
2022-09-23T03:32:47.423Z,4.60
2022-09-23T03:35:15.798Z,7.95
2022-09-23T03:37:52.030Z,7.72
2022-09-23T03:40:23.348Z,6.38
2022-09-23T03:42:51.341Z,5.38
2022-09-23T03:45:26.089Z,5.13
2022-09-23T03:47:54.278Z,5.38
2022-09-23T03:50:22.269Z,5.60
2022-09-23T03:52:51.462Z,6.22
2022-09-23T03:55:20.453Z,4.25
2022-09-23T03:57:48.627Z,7.32
2022-09-23T04:00:17.237Z,10.30
2022-09-23T04:02:45.609Z,6.25
2022-09-23T04:05:15.627Z,4.03
2022-09-23T04:07:43.535Z,4.95
2022-09-23T04:10:12.684Z,5.45
2022-09-23T04:12:40.358Z,7.57
2022-09-23T04:15:08.703Z,4.75
2022-09-23T04:17:36.440Z,6.70
2022-09-23T04:20:04.477Z,8.07
2022-09-23T04:22:34.083Z,6.63
2022-09-23T04:25:01.841Z,8.65
2022-09-23T04:27:35.461Z,5.00
2022-09-23T04:30:06.996Z,5.95
2022-09-23T04:32:34.675Z,5.25
2022-09-23T04:35:02.349Z,8.98
2022-09-23T04:37:30.456Z,5.85
2022-09-23T04:39:58.168Z,8.45
2022-09-23T04:42:29.426Z,6.38
2022-09-23T04:44:58.807Z,8.90
2022-09-23T04:47:26.485Z,7.72
2022-09-23T04:49:59.064Z,6.15
2022-09-23T04:52:27.830Z,7.15
2022-09-23T04:54:55.609Z,4.68
2022-09-23T04:57:24.567Z,9.45
2022-09-23T04:59:52.753Z,6.53
2022-09-23T05:02:22.255Z,7.85
2022-09-23T05:04:50.275Z,8.52
2022-09-23T05:07:19.092Z,11.35
2022-09-23T05:12:13.880Z,10.10
2022-09-23T05:14:41.539Z,9.85
2022-09-23T05:17:09.196Z,8.73
2022-09-23T05:19:38.385Z,9.30
2022-09-23T05:22:06.373Z,6.25
2022-09-23T05:24:34.009Z,10.02
2022-09-23T05:27:02.074Z,5.95
2022-09-23T05:29:29.924Z,7.07
2022-09-23T05:31:57.646Z,10.05
2022-09-23T05:34:25.730Z,6.97
2022-09-23T05:36:54.748Z,11.57
2022-09-23T05:39:22.502Z,6.90
2022-09-23T05:41:50.272Z,5.75
2022-09-23T05:46:43.281Z,7.05
2022-09-23T05:49:12.028Z,6.93
2022-09-23T05:51:39.874Z,7.63
2022-09-23T05:54:09.324Z,6.50
2022-09-23T05:56:38.270Z,9.55
2022-09-23T05:59:07.176Z,8.02
2022-09-23T06:01:38.021Z,10.13
2022-09-23T06:04:08.181Z,10.80
2022-09-23T06:06:48.932Z,9.27
2022-09-23T06:09:18.037Z,6.93
2022-09-23T06:11:46.013Z,10.77
2022-09-23T06:14:15.020Z,10.30
2022-09-23T06:16:43.070Z,9.82
2022-09-23T06:19:10.868Z,8.50
2022-09-23T06:21:40.472Z,7.07
2022-09-23T06:24:09.535Z,7.07
2022-09-23T06:26:39.010Z,7.35
2022-09-23T06:29:11.524Z,9.35
2022-09-23T06:31:41.924Z,7.03
2022-09-23T06:34:13.110Z,7.55
2022-09-23T06:36:44.314Z,13.18
2022-09-23T06:39:12.971Z,6.35
2022-09-23T06:44:09.178Z,7.05
2022-09-23T06:46:37.253Z,11.50
2022-09-23T06:49:05.099Z,7.65
2022-09-23T06:51:32.859Z,9.52
2022-09-23T06:54:00.612Z,9.50
2022-09-23T06:56:28.471Z,5.93
2022-09-23T06:58:57.620Z,8.55
2022-09-23T07:01:25.410Z,12.15
2022-09-23T07:03:54.175Z,6.63
2022-09-23T07:06:22.007Z,13.98
2022-09-23T07:08:51.232Z,9.05
2022-09-23T07:11:22.643Z,6.47
2022-09-23T07:13:50.782Z,6.53
2022-09-23T07:21:13.168Z,11.43
2022-09-23T07:23:40.907Z,14.70
2022-09-23T07:26:09.030Z,7.80
2022-09-23T07:28:37.360Z,8.32
2022-09-23T07:31:07.943Z,6.25
2022-09-23T07:33:36.155Z,5.53
2022-09-23T07:38:33.335Z,6.50
2022-09-23T07:41:05.822Z,6.85
2022-09-23T07:43:34.072Z,8.88
2022-09-23T07:46:03.321Z,6.75
2022-09-23T07:48:34.283Z,5.00
2022-09-23T07:51:02.200Z,6.22
2022-09-23T07:53:32.094Z,8.10
2022-09-23T07:56:01.173Z,8.32
2022-09-23T07:58:28.872Z,7.68
2022-09-23T08:03:21.906Z,5.22
2022-09-23T08:05:50.713Z,8.45
2022-09-23T08:08:18.698Z,7.50
2022-09-23T08:10:46.375Z,7.82
2022-09-23T08:13:15.726Z,6.20
2022-09-23T08:15:44.329Z,5.47
2022-09-23T08:18:12.082Z,6.72
2022-09-23T08:20:47.377Z,5.60
2022-09-23T08:23:17.172Z,6.28
2022-09-23T08:28:10.136Z,11.15
2022-09-23T08:30:40.108Z,8.27
2022-09-23T08:33:07.875Z,9.15
2022-09-23T08:35:35.593Z,6.45
2022-09-23T08:38:03.300Z,6.93
2022-09-23T08:40:31.263Z,8.98
2022-09-23T08:43:00.544Z,12.65
2022-09-23T08:45:29.302Z,10.80
2022-09-23T08:48:10.786Z,9.93
2022-09-23T08:50:43.375Z,7.93
2022-09-23T08:53:18.171Z,8.23
2022-09-23T09:01:00.734Z,8.10
2022-09-23T09:03:35.523Z,5.80
2022-09-23T09:06:04.264Z,5.75
2022-09-23T09:08:36.305Z,9.85
2022-09-23T09:11:04.980Z,11.13
2022-09-23T09:13:34.289Z,6.63
2022-09-23T09:18:36.272Z,7.35
2022-09-23T09:21:12.456Z,7.35
2022-09-23T09:23:46.100Z,7.70
2022-09-23T09:26:20.646Z,9.88
2022-09-23T09:28:52.307Z,7.03
2022-09-23T09:31:28.193Z,8.90
2022-09-23T09:34:03.844Z,9.52
2022-09-23T09:38:58.592Z,8.13
2022-09-23T09:41:31.353Z,13.05
2022-09-23T09:46:50.717Z,8.13
2022-09-23T09:49:30.969Z,8.60
2022-09-23T09:52:14.496Z,10.95
2022-09-23T09:54:43.509Z,12.50
2022-09-23T09:57:19.749Z,11.77
2022-09-23T09:59:47.687Z,8.88
2022-09-23T10:02:25.870Z,7.43
2022-09-23T10:05:01.815Z,8.73
2022-09-23T10:07:31.516Z,14.30
2022-09-23T10:10:28.789Z,10.07
2022-09-23T10:13:15.482Z,9.35
2022-09-23T10:15:45.677Z,9.25
2022-09-23T10:18:20.171Z,6.07
2022-09-23T10:20:50.847Z,12.82
2022-09-23T10:23:23.320Z,8.98
2022-09-23T10:25:58.320Z,8.50
2022-09-23T10:28:41.143Z,5.68
2022-09-23T10:33:42.929Z,7.70
2022-09-23T10:36:12.611Z,6.22
2022-09-23T10:38:40.486Z,6.72
2022-09-23T10:41:35.582Z,14.38
2022-09-23T10:44:32.735Z,7.10
2022-09-23T10:47:09.461Z,7.15
2022-09-23T10:50:08.575Z,5.65
2022-09-23T10:52:50.450Z,7.18
2022-09-23T10:55:32.423Z,5.10
2022-09-23T10:58:18.593Z,6.15
2022-09-23T11:03:50.782Z,10.50
2022-09-23T11:06:25.935Z,9.30
2022-09-23T11:11:49.776Z,5.78
2022-09-23T11:14:30.534Z,12.23
2022-09-23T11:17:18.491Z,7.93
2022-09-23T11:20:04.240Z,4.88
2022-09-23T11:22:47.518Z,5.95
2022-09-23T11:28:07.063Z,7.85
2022-09-23T11:30:45.392Z,6.38
2022-09-23T11:33:29.373Z,5.88
2022-09-23T11:38:29.478Z,9.07
2022-09-23T11:41:02.935Z,5.75
2022-09-23T11:43:36.612Z,8.57
2022-09-23T11:46:12.256Z,8.25
2022-09-23T11:48:46.335Z,6.47
2022-09-23T11:51:17.900Z,7.10
2022-09-23T11:53:49.941Z,6.33
2022-09-23T11:56:34.675Z,8.65
2022-09-23T11:59:11.534Z,8.07
2022-09-23T12:01:46.646Z,8.07
2022-09-23T12:04:22.886Z,6.13
2022-09-23T12:06:56.520Z,5.15
2022-09-23T12:09:53.876Z,6.93
2022-09-23T12:12:27.272Z,5.78
2022-09-23T12:15:02.029Z,6.40
2022-09-23T12:23:36.394Z,5.15
2022-09-23T12:26:08.317Z,5.70
2022-09-23T12:31:05.348Z,5.23
2022-09-23T12:33:34.909Z,6.68
2022-09-23T12:41:26.118Z,7.47
2022-09-23T12:44:02.765Z,6.45
2022-09-23T12:46:30.622Z,8.63
2022-09-23T12:49:03.703Z,8.45
2022-09-23T12:51:32.870Z,7.95
2022-09-23T12:54:22.311Z,7.75
2022-09-23T12:57:06.555Z,5.35
2022-09-23T12:59:56.688Z,5.95
2022-09-23T13:02:29.625Z,10.20
2022-09-23T13:05:21.437Z,7.10
2022-09-23T13:07:51.063Z,8.00
2022-09-23T13:10:26.419Z,7.20
2022-09-23T13:13:00.972Z,8.32
2022-09-23T13:15:33.048Z,5.57
2022-09-23T13:22:03.082Z,7.75
2022-09-23T13:24:40.791Z,7.00
2022-09-23T13:27:16.617Z,6.55
2022-09-23T13:29:50.098Z,8.43
2022-09-23T13:32:21.676Z,6.07
2022-09-23T13:34:58.036Z,4.95
2022-09-23T13:37:32.467Z,5.57
2022-09-23T13:40:20.637Z,5.85
2022-09-23T13:42:53.644Z,5.47
2022-09-23T13:45:24.370Z,4.93
2022-09-23T13:50:38.800Z,4.65
2022-09-23T13:53:11.756Z,6.45
2022-09-23T13:55:41.315Z,9.10
2022-09-23T13:58:18.525Z,8.30
2022-09-23T14:00:46.827Z,7.00
2022-09-23T14:03:19.028Z,7.88
2022-09-23T14:05:48.620Z,5.35
2022-09-23T14:08:16.851Z,6.53
2022-09-23T14:10:46.893Z,11.85
2022-09-23T14:13:32.805Z,6.00
2022-09-23T14:16:04.413Z,8.13
2022-09-23T14:18:38.179Z,5.05
2022-09-23T14:21:26.140Z,4.93
2022-09-23T14:23:53.902Z,5.35
2022-09-23T14:26:22.847Z,4.93
2022-09-23T14:28:50.907Z,4.03
2022-09-23T14:31:18.943Z,5.45
2022-09-23T14:37:00.849Z,3.83
2022-09-23T14:39:30.336Z,5.70
2022-09-23T14:42:00.052Z,4.20
2022-09-23T14:44:28.073Z,4.22
2022-09-23T14:46:58.540Z,4.35
2022-09-23T14:49:27.238Z,4.35
2022-09-23T14:52:00.639Z,5.03
2022-09-23T14:54:54.648Z,3.03
2022-09-23T14:57:28.368Z,6.43
2022-09-23T15:00:00.740Z,3.58
2022-09-23T15:02:48.027Z,5.60
2022-09-23T15:05:19.314Z,4.53
2022-09-23T15:07:51.669Z,3.53
2022-09-23T15:10:32.702Z,4.05
2022-09-23T15:13:06.607Z,6.65
2022-09-23T15:15:35.639Z,3.33
2022-09-23T15:18:06.362Z,5.55
2022-09-23T15:20:35.368Z,4.03
2022-09-23T15:23:04.873Z,7.63
2022-09-23T15:25:48.840Z,5.60
2022-09-23T15:28:23.632Z,6.93
2022-09-23T15:30:51.516Z,3.00
2022-09-23T15:33:20.239Z,8.27
2022-09-23T15:35:50.385Z,3.72
2022-09-23T15:38:19.469Z,4.60
2022-09-23T15:40:47.725Z,3.97
2022-09-23T15:43:21.168Z,4.25
2022-09-23T15:45:56.857Z,4.07
2022-09-23T15:48:28.740Z,5.32
2022-09-23T15:50:59.188Z,3.58
2022-09-23T15:53:29.958Z,6.95
2022-09-23T15:55:58.679Z,2.88
2022-09-23T15:58:27.670Z,4.78
2022-09-23T16:00:57.118Z,5.10
2022-09-23T16:03:28.488Z,3.92
2022-09-23T16:06:01.063Z,3.70
2022-09-23T16:08:32.924Z,3.28
2022-09-23T16:11:01.079Z,5.65
2022-09-23T16:13:28.859Z,6.35
2022-09-23T16:15:57.120Z,5.70
2022-09-23T16:18:24.988Z,5.13
2022-09-23T16:20:52.794Z,5.55
2022-09-23T16:23:34.455Z,3.53
2022-09-23T16:26:07.765Z,6.68
2022-09-23T16:28:35.821Z,5.53
2022-09-23T16:31:03.569Z,4.18
2022-09-23T16:33:31.279Z,8.52
2022-09-23T16:36:00.866Z,3.85
2022-09-23T16:38:28.987Z,4.45
2022-09-23T16:41:00.560Z,2.97
2022-09-23T16:46:08.148Z,2.55
2022-09-23T16:48:40.455Z,8.00
2022-09-23T16:51:08.905Z,3.03
2022-09-23T16:53:37.610Z,3.38
2022-09-23T16:56:09.445Z,4.68
2022-09-23T16:58:39.207Z,2.05
2022-09-23T17:01:26.413Z,3.75
2022-09-23T17:03:54.386Z,3.95
2022-09-23T17:06:26.656Z,2.85
2022-09-23T17:08:55.185Z,3.03
2022-09-23T17:11:23.562Z,2.90
2022-09-23T17:13:52.857Z,3.22
2022-09-23T17:16:25.663Z,4.47
2022-09-23T17:18:55.460Z,7.25
2022-09-23T17:21:25.954Z,8.93
2022-09-23T17:23:54.490Z,9.80
2022-09-23T17:26:25.190Z,4.75
2022-09-23T17:28:55.841Z,4.97
2022-09-23T17:31:24.693Z,4.20
2022-09-23T17:33:53.115Z,4.30
2022-09-23T17:36:21.751Z,4.28
2022-09-23T17:38:53.477Z,5.78
2022-09-23T17:41:22.952Z,7.55
2022-09-23T17:44:00.410Z,8.20
2022-09-23T17:46:28.905Z,7.30
2022-09-23T17:48:57.059Z,10.85
2022-09-23T17:51:25.682Z,7.95
2022-09-23T17:53:53.499Z,14.45
2022-09-23T17:56:22.798Z,10.93
2022-09-23T17:58:51.606Z,11.18
2022-09-23T18:01:22.862Z,17.63
2022-09-23T18:03:54.994Z,11.40
2022-09-23T18:06:25.618Z,7.80
2022-09-23T18:08:53.524Z,7.40
2022-09-23T18:11:23.318Z,8.00
2022-09-23T18:13:52.432Z,8.52
2022-09-23T18:16:24.487Z,13.52
2022-09-23T18:21:50.629Z,12.02
2022-09-23T18:24:35.098Z,35.33
2022-09-23T18:27:03.247Z,45.90
2022-09-23T18:29:31.650Z,38.38
2022-09-23T18:31:59.973Z,26.35
2022-09-23T18:34:28.545Z,25.80
2022-09-23T18:36:57.740Z,29.35
2022-09-23T18:39:25.915Z,17.20
2022-09-23T18:41:55.093Z,15.10
2022-09-23T18:44:23.564Z,9.75
2022-09-23T18:46:51.934Z,17.85
2022-09-23T18:49:37.338Z,13.23
2022-09-23T18:52:06.545Z,12.77
2022-09-23T18:54:34.333Z,12.25
2022-09-23T18:57:02.172Z,10.07
2022-09-23T18:59:31.762Z,10.45
2022-09-23T19:04:42.335Z,16.48
2022-09-23T19:07:11.092Z,11.40
2022-09-23T19:09:39.836Z,10.65
2022-09-23T19:12:07.621Z,13.63
2022-09-23T19:14:35.300Z,10.35
2022-09-23T19:17:05.214Z,5.35
2022-09-23T19:19:32.928Z,7.47
2022-09-23T19:22:01.944Z,7.85
2022-09-23T19:24:33.679Z,7.75
2022-09-23T19:27:03.607Z,5.13
2022-09-23T19:29:31.390Z,9.65
2022-09-23T19:34:39.447Z,10.10
2022-09-23T19:37:07.198Z,9.85
2022-09-23T19:39:37.442Z,6.40
2022-09-23T19:42:05.185Z,8.35
2022-09-23T19:44:32.996Z,8.27
2022-09-23T19:47:01.243Z,7.32
2022-09-23T19:49:30.859Z,15.43
2022-09-23T19:52:00.373Z,8.82
2022-09-23T19:54:28.133Z,6.15
2022-09-23T19:56:56.419Z,5.85
2022-09-23T19:59:25.079Z,9.07
2022-09-23T20:01:52.790Z,11.32
2022-09-23T20:04:20.669Z,12.35
2022-09-23T20:06:49.536Z,8.60
2022-09-23T20:09:27.820Z,8.82
2022-09-23T20:11:55.595Z,7.57
2022-09-23T20:14:24.603Z,9.63
2022-09-23T20:16:53.126Z,7.05
2022-09-23T20:19:20.972Z,7.25
2022-09-23T20:22:08.917Z,7.25
2022-09-23T20:24:38.492Z,6.15
2022-09-23T20:27:11.225Z,6.65
2022-09-23T20:32:07.197Z,7.05
2022-09-23T20:34:34.961Z,8.45
2022-09-23T20:37:04.278Z,12.05
2022-09-23T20:39:32.379Z,8.18
2022-09-23T20:42:02.737Z,7.55
2022-09-23T20:44:30.542Z,8.02
2022-09-23T20:46:58.390Z,11.75
2022-09-23T20:49:26.412Z,10.70
2022-09-23T20:54:20.984Z,7.97
2022-09-23T20:56:49.887Z,7.40
2022-09-23T20:59:19.059Z,9.43
2022-09-23T21:01:47.637Z,6.28
2022-09-23T21:04:15.875Z,9.50
2022-09-23T21:06:45.612Z,13.48
2022-09-23T21:09:14.012Z,8.48
2022-09-23T21:11:41.903Z,7.72
2022-09-23T21:14:09.782Z,10.68
2022-09-23T21:16:39.451Z,6.90
2022-09-23T21:19:10.480Z,9.32
2022-09-23T21:21:39.188Z,7.18
2022-09-23T21:24:36.063Z,8.65
2022-09-23T21:26:55.119Z,9.50
2022-09-23T21:29:22.854Z,9.18
2022-09-23T21:31:52.012Z,8.43
2022-09-23T21:34:28.117Z,6.47
2022-09-23T21:36:57.542Z,8.60
2022-09-23T21:39:25.316Z,9.50
2022-09-23T21:41:53.115Z,9.80
2022-09-23T21:44:20.961Z,8.98
2022-09-23T21:46:48.807Z,8.10
2022-09-23T21:49:17.977Z,11.27
2022-09-23T21:51:45.799Z,11.60
2022-09-23T21:54:29.621Z,10.68
2022-09-23T21:56:57.481Z,9.27
2022-09-23T21:59:25.508Z,10.80
2022-09-23T22:01:54.523Z,13.35
2022-09-23T22:04:23.898Z,8.07
2022-09-23T22:06:52.332Z,8.43
2022-09-23T22:09:26.211Z,13.35
2022-09-23T22:12:07.863Z,13.77
2022-09-23T22:14:35.727Z,6.80
2022-09-23T22:17:05.442Z,8.18
2022-09-23T22:19:42.761Z,8.82
2022-09-23T22:22:15.826Z,9.07
2022-09-23T22:24:49.580Z,9.77
2022-09-23T22:27:19.464Z,6.80
2022-09-23T22:30:05.268Z,8.27
2022-09-23T22:32:42.134Z,8.25
2022-09-23T22:35:13.410Z,8.07
2022-09-23T22:37:41.126Z,7.38
2022-09-23T22:40:14.294Z,10.32
2022-09-23T22:42:42.593Z,9.70
2022-09-23T22:45:12.174Z,17.83
2022-09-23T22:47:43.515Z,15.88
2022-09-23T22:50:13.839Z,9.27
2022-09-23T22:52:41.653Z,16.55
2022-09-23T22:55:10.268Z,15.68
2022-09-23T22:57:38.253Z,23.08
2022-09-23T23:00:07.342Z,13.45
2022-09-23T23:02:35.094Z,7.85
2022-09-23T23:05:02.877Z,8.57
2022-09-23T23:07:34.904Z,9.80
2022-09-23T23:10:04.690Z,8.25
2022-09-23T23:12:33.472Z,7.93
2022-09-23T23:15:01.205Z,8.68
2022-09-23T23:17:29.777Z,9.35
2022-09-23T23:19:57.876Z,8.20
2022-09-23T23:22:27.702Z,11.27
2022-09-23T23:24:56.981Z,7.10
2022-09-23T23:27:24.824Z,7.60
2022-09-23T23:29:52.562Z,9.32
2022-09-23T23:32:20.304Z,7.25
2022-09-23T23:34:48.055Z,8.68
2022-09-23T23:37:20.100Z,7.68
2022-09-23T23:42:17.657Z,7.78
2022-09-23T23:44:45.370Z,12.40
2022-09-23T23:47:13.191Z,10.95
2022-09-23T23:49:45.018Z,9.38
2022-09-23T23:52:12.799Z,10.40
2022-09-23T23:57:24.020Z,7.57
2022-09-23T23:59:51.729Z,9.23
